Time;durP1;ratioP1;P1;durP2;ratioP2;P2;SDS_P1;SDS_P2;PMS_P1;PMS_P2;Temp;Humidity;BMP_temperature;BMP_pressure;BME280_temperature;BME280_humidity;BME280_pressure;Samples;Min_cycle;Max_cycle;Signal;HPM_P1;HPM_P2
2021/08/18 00:01:40;;;;;;;29.50;11.67;;;;;;;11.94;100.00;94096.47;5072852;28;20568;-81
2021/08/18 00:04:07;;;;;;;32.00;12.43;;;;;;;11.94;100.00;94099.91;5073125;28;20195;-80
2021/08/18 00:06:33;;;;;;;34.63;12.57;;;;;;;11.91;100.00;94091.66;5073465;28;20207;-81
2021/08/18 00:09:01;;;;;;;36.27;12.93;;;;;;;11.92;100.00;94090.66;5073470;28;20221;-81
2021/08/18 00:11:28;;;;;;;31.80;12.27;;;;;;;11.93;100.00;94084.41;5073303;28;20206;-80
2021/08/18 00:13:54;;;;;;;33.40;12.50;;;;;;;11.94;100.00;94086.00;5072723;28;20214;-82
2021/08/18 00:16:22;;;;;;;34.97;12.77;;;;;;;11.90;100.00;94090.03;5072975;28;20214;-81
2021/08/18 00:18:52;;;;;;;34.40;12.87;;;;;;;11.90;100.00;94084.78;5073048;28;20214;-81
2021/08/18 00:21:19;;;;;;;30.30;12.13;;;;;;;11.89;100.00;94089.22;5072955;28;20213;-81
2021/08/18 00:23:46;;;;;;;32.97;12.53;;;;;;;11.92;100.00;94088.03;5072781;28;20685;-81
2021/08/18 00:26:14;;;;;;;27.50;11.90;;;;;;;11.92;100.00;94088.03;5072694;28;20203;-81
2021/08/18 00:28:40;;;;;;;31.27;12.57;;;;;;;11.94;100.00;94083.41;5073011;28;20199;-81
2021/08/18 00:31:07;;;;;;;38.27;13.07;;;;;;;11.93;100.00;94085.22;5073467;28;20661;-81
2021/08/18 00:33:34;;;;;;;31.20;12.50;;;;;;;11.96;100.00;94081.41;5074485;28;20199;-80
2021/08/18 00:36:00;;;;;;;31.63;12.00;;;;;;;11.94;100.00;94086.84;5073590;28;20203;-80
2021/08/18 00:38:27;;;;;;;33.33;12.90;;;;;;;11.94;100.00;94078.16;5073135;28;20206;-79
2021/08/18 00:40:53;;;;;;;35.87;13.70;;;;;;;11.96;100.00;94084.03;5072736;28;20194;-80
2021/08/18 00:43:21;;;;;;;37.80;15.50;;;;;;;11.95;100.00;94077.16;5071475;28;20483;-81
2021/08/18 00:45:48;;;;;;;30.97;13.30;;;;;;;11.97;100.00;94075.97;5072389;28;20227;-80
2021/08/18 00:48:14;;;;;;;35.23;13.07;;;;;;;11.98;100.00;94076.78;5072566;28;20209;-81
2021/08/18 00:50:41;;;;;;;30.43;12.30;;;;;;;11.96;100.00;94076.19;5072559;28;20558;-80
2021/08/18 00:53:07;;;;;;;32.50;11.50;;;;;;;11.96;100.00;94078.78;5072449;28;20554;-80
2021/08/18 00:55:34;;;;;;;35.73;13.17;;;;;;;11.97;100.00;94072.53;5072466;28;20213;-80
2021/08/18 00:58:02;;;;;;;34.43;12.90;;;;;;;11.95;100.00;94071.94;5072387;28;20198;-80
2021/08/18 01:00:30;;;;;;;33.47;12.50;;;;;;;11.95;100.00;94066.69;5072539;28;20202;-80
2021/08/18 01:02:58;;;;;;;30.30;12.60;;;;;;;11.97;100.00;94072.53;5071953;28;20234;-81
2021/08/18 01:05:27;;;;;;;33.97;12.97;;;;;;;11.95;100.00;94072.72;5072424;28;20210;-80
2021/08/18 01:07:55;;;;;;;31.47;12.63;;;;;;;11.94;100.00;94065.09;5072229;28;20199;-81
2021/08/18 01:10:23;;;;;;;34.13;12.03;;;;;;;11.93;100.00;94064.28;5072599;28;20200;-80
2021/08/18 01:12:51;;;;;;;30.70;12.83;;;;;;;11.92;100.00;94061.88;5072356;28;20650;-79
2021/08/18 01:15:19;;;;;;;30.70;12.13;;;;;;;11.94;100.00;94058.06;5072270;28;20201;-79
2021/08/18 01:17:49;;;;;;;31.60;11.90;;;;;;;11.96;100.00;94057.84;5072283;28;20210;-80
2021/08/18 01:20:18;;;;;;;38.40;13.20;;;;;;;11.97;100.00;94059.44;5072179;28;20205;-79
2021/08/18 01:22:45;;;;;;;34.17;12.90;;;;;;;11.96;100.00;94055.25;5074717;28;20743;-81
2021/08/18 01:25:12;;;;;;;36.38;13.27;;;;;;;11.93;100.00;94058.25;5075747;28;20195;-80
2021/08/18 01:27:45;;;;;;;34.17;15.50;;;;;;;11.94;100.00;94059.84;5075078;28;20932;-80
2021/08/18 01:30:14;;;;;;;32.30;12.70;;;;;;;11.95;100.00;94061.47;5075763;28;20209;-80
2021/08/18 01:32:43;;;;;;;30.17;13.37;;;;;;;11.95;100.00;94058.84;5075720;28;20211;-80
2021/08/18 01:35:21;;;;;;;31.55;12.80;;;;;;;11.96;100.00;94061.28;5075454;28;20538;-80
2021/08/18 01:37:48;;;;;;;32.77;12.37;;;;;;;11.97;100.00;94060.28;5075571;28;20289;-81
2021/08/18 01:40:15;;;;;;;29.07;11.40;;;;;;;11.97;100.00;94056.84;5075687;28;20209;-81
2021/08/18 01:42:42;;;;;;;23.53;11.43;;;;;;;11.98;100.00;94059.25;5075955;28;20219;-81
2021/08/18 01:45:10;;;;;;;28.85;10.93;;;;;;;11.96;100.00;94061.28;5075612;28;20733;-81
2021/08/18 01:47:38;;;;;;;30.73;12.30;;;;;;;11.96;100.00;94063.09;5075335;28;20202;-80
2021/08/18 01:50:06;;;;;;;27.97;11.07;;;;;;;11.97;100.00;94059.44;5075410;28;20210;-81
2021/08/18 01:52:35;;;;;;;29.33;11.33;;;;;;;11.95;100.00;94058.84;5075936;28;20202;-81
2021/08/18 01:55:02;;;;;;;25.33;11.57;;;;;;;11.95;100.00;94057.03;5075404;28;20199;-81
2021/08/18 01:57:29;;;;;;;31.77;11.50;;;;;;;11.95;100.00;94064.09;5075170;28;20581;-81
2021/08/18 01:59:55;;;;;;;29.33;12.33;;;;;;;11.89;100.00;94067.47;5075172;28;20215;-81
2021/08/18 02:02:22;;;;;;;33.70;12.30;;;;;;;11.80;100.00;94062.44;5074977;28;20226;-80
2021/08/18 02:04:50;;;;;;;37.80;13.90;;;;;;;11.74;100.00;94065.88;5075075;28;20206;-81
2021/08/18 02:07:16;;;;;;;38.60;12.80;;;;;;;11.74;100.00;94065.88;5075067;28;20203;-80
2021/08/18 02:09:43;;;;;;;31.33;12.57;;;;;;;11.77;100.00;94060.22;5075462;28;20206;-81
2021/08/18 02:12:10;;;;;;;37.00;13.97;;;;;;;11.81;100.00;94056.22;5075039;28;20207;-80
2021/08/18 02:14:37;;;;;;;30.10;12.57;;;;;;;11.85;100.00;94062.63;5074996;28;20225;-81
2021/08/18 02:17:04;;;;;;;31.50;12.63;;;;;;;11.89;100.00;94057.00;5077096;28;20206;-81
2021/08/18 02:19:31;;;;;;;36.30;13.37;;;;;;;11.90;100.00;94059.41;5075195;28;20207;-81
2021/08/18 02:21:59;;;;;;;36.40;13.20;;;;;;;11.97;100.00;94057.66;5075076;28;20209;-81
2021/08/18 02:24:25;;;;;;;34.67;13.23;;;;;;;11.99;100.00;94060.03;5076228;28;20195;-81
2021/08/18 02:26:52;;;;;;;29.27;12.23;;;;;;;12.04;100.00;94060.28;5079237;28;20218;-82
2021/08/18 02:29:19;;;;;;;29.93;12.27;;;;;;;12.05;100.00;94061.88;5075503;28;20206;-82
2021/08/18 02:31:45;;;;;;;30.20;12.50;;;;;;;12.09;100.00;94051.78;5074767;28;20203;-81
2021/08/18 02:34:12;;;;;;;32.97;12.50;;;;;;;12.11;100.00;94055.03;5073980;28;20198;-81
2021/08/18 02:36:39;;;;;;;29.23;12.07;;;;;;;12.12;100.00;94061.88;5074546;28;20653;-80
2021/08/18 02:39:08;;;;;;;33.78;12.57;;;;;;;12.10;100.00;94058.66;5074196;28;20731;-79
2021/08/18 02:41:35;;;;;;;29.80;12.97;;;;;;;12.14;100.00;94067.69;5074379;28;20202;-80
2021/08/18 02:44:02;;;;;;;30.20;12.47;;;;;;;12.18;100.00;94061.84;5074444;28;20228;-82
2021/08/18 02:46:28;;;;;;;25.77;11.17;;;;;;;12.20;100.00;94064.28;5074630;28;20308;-81
2021/08/18 02:48:55;;;;;;;28.30;11.90;;;;;;;12.17;100.00;94056.81;5075187;28;20202;-81
2021/08/18 02:51:21;;;;;;;36.93;12.77;;;;;;;12.18;100.00;94064.47;5074295;28;20561;-80
2021/08/18 02:53:48;;;;;;;31.43;12.00;;;;;;;12.18;100.00;94056.63;5077015;28;20337;-81
2021/08/18 02:56:16;;;;;;;30.53;11.90;;;;;;;12.13;100.00;94053.81;5074808;28;20203;-81
2021/08/18 02:58:42;;;;;;;28.83;11.67;;;;;;;12.14;100.00;94054.59;5076267;28;20557;-81
2021/08/18 03:01:09;;;;;;;28.40;12.20;;;;;;;12.10;100.00;94048.97;5076402;28;20202;-81
2021/08/18 03:03:35;;;;;;;30.33;11.77;;;;;;;12.12;100.00;94054.81;5074671;28;20715;-80
2021/08/18 03:06:02;;;;;;;30.33;13.10;;;;;;;12.04;100.00;94060.28;5073970;28;20688;-80
2021/08/18 03:08:28;;;;;;;27.07;11.93;;;;;;;11.98;100.00;94050.59;5077409;28;20649;-80
2021/08/18 03:10:55;;;;;;;29.53;12.17;;;;;;;11.96;100.00;94053.41;5075113;28;20535;-81
2021/08/18 03:13:23;;;;;;;36.63;12.33;;;;;;;11.95;100.00;94054.41;5077978;28;20203;-81
2021/08/18 03:15:49;;;;;;;26.23;11.67;;;;;;;11.96;100.00;94050.00;5074736;28;20198;-81
2021/08/18 03:18:16;;;;;;;32.37;11.73;;;;;;;11.99;100.00;94049.59;5077455;28;20201;-80
2021/08/18 03:20:43;;;;;;;26.50;11.70;;;;;;;11.96;100.00;94042.97;5094737;28;20179;-80
2021/08/18 03:23:09;;;;;;;30.33;12.07;;;;;;;12.00;100.00;94054.63;5095811;28;20284;-81
2021/08/18 03:25:36;;;;;;;31.50;12.37;;;;;;;12.05;100.00;94051.41;5082961;28;20203;-79
2021/08/18 03:28:03;;;;;;;27.37;12.03;;;;;;;12.03;100.00;94050.81;5090934;28;20542;-80
2021/08/18 03:30:30;;;;;;;27.73;12.23;;;;;;;12.01;100.00;94055.44;5085032;28;20271;-80
2021/08/18 03:32:57;;;;;;;29.70;12.13;;;;;;;11.99;100.00;94050.41;5090526;28;20233;-81
2021/08/18 03:35:24;;;;;;;29.67;12.10;;;;;;;11.94;100.00;94054.63;5095208;28;20187;-80
2021/08/18 03:37:52;;;;;;;27.47;11.07;;;;;;;11.89;100.00;94039.50;5087489;28;20630;-80
2021/08/18 03:40:18;;;;;;;31.17;12.17;;;;;;;11.91;100.00;94044.56;5080176;28;20202;-80
2021/08/18 03:42:45;;;;;;;31.65;13.85;;;;;;;11.93;100.00;94050.41;5087237;28;20450;-80
2021/08/18 03:45:12;;;;;;;30.17;12.50;;;;;;;11.92;100.00;94043.56;5090169;28;20235;-79
2021/08/18 03:47:40;;;;;;;33.63;12.80;;;;;;;11.88;100.00;94050.19;5085149;28;20179;-81
2021/08/18 03:50:08;;;;;;;30.10;12.50;;;;;;;11.84;100.00;94047.97;5088509;28;20262;-82
2021/08/18 03:52:39;;;;;;;27.93;12.37;;;;;;;11.95;100.00;94045.78;5080976;28;20206;-79
2021/08/18 03:55:06;;;;;;;30.73;12.53;;;;;;;11.94;100.00;94049.38;5087643;28;20202;-80
2021/08/18 03:57:33;;;;;;;25.63;11.53;;;;;;;11.95;100.00;94051.00;5090815;28;20589;-81
2021/08/18 04:00:00;;;;;;;26.67;11.73;;;;;;;11.97;100.00;94056.84;5087248;28;20675;-81
2021/08/18 04:02:27;;;;;;;25.07;11.97;;;;;;;11.93;100.00;94053.03;5090121;28;20558;-81
2021/08/18 04:04:55;;;;;;;30.60;13.20;;;;;;;11.89;100.00;94060.44;5089485;28;20317;-80
2021/08/18 04:07:21;;;;;;;24.97;11.60;;;;;;;11.85;100.00;94064.44;5090367;28;20225;-81
2021/08/18 04:09:48;;;;;;;30.80;11.40;;;;;;;11.83;100.00;94061.25;5090012;28;20218;-81
2021/08/18 04:12:14;;;;;;;31.57;12.43;;;;;;;11.80;100.00;94061.63;5088196;28;20294;-80
2021/08/18 04:14:41;;;;;;;28.03;12.93;;;;;;;11.80;100.00;94067.66;5088147;28;20195;-81
2021/08/18 04:17:07;;;;;;;28.63;11.83;;;;;;;11.81;100.00;94066.66;5079892;28;20201;-81
2021/08/18 04:19:36;;;;;;;30.37;11.87;;;;;;;11.77;100.00;94073.28;5076457;28;20199;-81
2021/08/18 04:22:04;;;;;;;30.23;12.47;;;;;;;11.76;100.00;94068.28;5077476;28;20229;-81
2021/08/18 04:24:31;;;;;;;30.73;12.67;;;;;;;11.76;100.00;94071.69;5077206;28;20237;-80
2021/08/18 04:26:57;;;;;;;33.37;13.97;;;;;;;11.75;100.00;94071.91;5073340;28;20504;-80
2021/08/18 04:29:24;;;;;;;28.57;11.23;;;;;;;11.72;100.00;94064.44;5075104;28;20527;-80
2021/08/18 04:31:50;;;;;;;32.10;12.40;;;;;;;11.72;100.00;94060.00;5074385;28;20207;-80
2021/08/18 04:34:17;;;;;;;29.53;12.43;;;;;;;11.69;100.00;94059.63;5074091;28;20237;-80
2021/08/18 04:36:44;;;;;;;30.27;11.97;;;;;;;11.68;100.00;94071.91;5075464;28;20271;-82
2021/08/18 04:39:11;;;;;;;26.93;10.93;;;;;;;11.75;100.00;94061.44;5076366;28;20289;-80
2021/08/18 04:41:38;;;;;;;27.27;11.90;;;;;;;11.70;100.00;94059.41;5074958;28;20617;-81
2021/08/18 04:44:04;;;;;;;30.90;11.87;;;;;;;11.75;100.00;94057.00;5076534;28;20232;-81
2021/08/18 04:46:31;;;;;;;27.17;11.33;;;;;;;11.73;100.00;94064.25;5078417;28;20332;-81
2021/08/18 04:48:58;;;;;;;32.70;11.50;;;;;;;11.72;100.00;94062.63;5078210;28;20273;-81
2021/08/18 04:51:24;;;;;;;27.93;11.20;;;;;;;11.73;100.00;94066.06;5079515;28;20199;-81
2021/08/18 04:53:51;;;;;;;24.17;11.17;;;;;;;11.74;100.00;94065.03;5077481;28;20293;-81
2021/08/18 04:56:19;;;;;;;27.57;12.47;;;;;;;11.78;100.00;94072.31;5075803;28;20203;-81
2021/08/18 04:58:45;;;;;;;29.50;11.93;;;;;;;11.77;100.00;94070.69;5079459;28;20206;-80
2021/08/18 05:01:12;;;;;;;34.87;12.17;;;;;;;11.77;100.00;94075.13;5079964;28;20549;-81
2021/08/18 05:03:38;;;;;;;30.77;12.43;;;;;;;11.78;100.00;94072.31;5083703;28;20261;-81
2021/08/18 05:06:05;;;;;;;30.70;12.50;;;;;;;11.80;100.00;94072.09;5084458;28;20270;-81
2021/08/18 05:08:31;;;;;;;30.43;12.27;;;;;;;11.83;100.00;94063.84;5085431;28;20291;-81
2021/08/18 05:10:58;;;;;;;28.20;12.48;;;;;;;11.88;100.00;94071.91;5084294;28;20444;-81
2021/08/18 05:13:26;;;;;;;28.37;11.97;;;;;;;11.84;100.00;94071.50;5086757;28;20285;-81
2021/08/18 05:15:52;;;;;;;28.70;11.90;;;;;;;11.87;100.00;94074.72;5087478;28;20618;-82
2021/08/18 05:18:19;;;;;;;28.90;11.30;;;;;;;11.98;100.00;94071.53;5088051;28;20209;-81
2021/08/18 05:20:46;;;;;;;28.40;12.57;;;;;;;12.06;100.00;94078.38;5087603;28;20225;-81
2021/08/18 05:23:12;;;;;;;26.93;11.70;;;;;;;12.07;100.00;94086.00;5089220;28;20211;-81
2021/08/18 05:25:39;;;;;;;28.63;11.60;;;;;;;12.13;100.00;94094.88;5096957;28;20267;-82
2021/08/18 05:28:08;;;;;;;27.00;11.98;;;;;;;12.21;100.00;94074.53;5100933;28;20211;-81
2021/08/18 05:30:36;;;;;;;27.90;11.30;;;;;;;12.25;100.00;94077.56;5091502;28;20214;-81
2021/08/18 05:33:02;;;;;;;34.60;12.20;;;;;;;12.28;100.00;94078.97;5095321;28;20223;-81
2021/08/18 05:35:29;;;;;;;27.70;11.70;;;;;;;12.17;100.00;94078.59;5090985;28;20620;-81
2021/08/18 05:37:55;;;;;;;29.57;12.17;;;;;;;12.28;100.00;94086.81;5088000;28;20223;-81
2021/08/18 05:40:22;;;;;;;33.80;13.23;;;;;;;12.28;100.00;94086.81;5093438;28;20198;-81
2021/08/18 05:42:48;;;;;;;30.40;12.53;;;;;;;12.41;100.00;94092.03;5091334;28;20255;-81
2021/08/18 05:45:16;;;;;;;27.53;11.97;;;;;;;12.51;100.00;94092.44;5091888;28;20320;-81
2021/08/18 05:47:46;;;;;;;31.77;12.23;;;;;;;12.61;100.00;94091.19;5083178;28;20592;-81
2021/08/18 05:50:13;;;;;;;25.83;11.60;;;;;;;12.69;100.00;94093.59;5092968;28;20217;-81
2021/08/18 05:52:40;;;;;;;29.17;12.13;;;;;;;12.67;100.00;94085.94;5083166;28;20289;-80
2021/08/18 05:55:07;;;;;;;26.67;11.63;;;;;;;12.72;100.00;94088.78;5083556;28;20229;-81
2021/08/18 05:57:34;;;;;;;28.73;13.73;;;;;;;12.72;100.00;94093.19;5080252;28;20446;-80
2021/08/18 06:00:01;;;;;;;29.83;12.17;;;;;;;12.73;100.00;94089.56;5083220;28;20530;-80
2021/08/18 06:02:27;;;;;;;33.20;12.98;;;;;;;12.74;100.00;94085.94;5083322;28;20206;-80
2021/08/18 06:04:55;;;;;;;26.20;11.88;;;;;;;12.84;100.00;94088.94;5088580;28;20325;-80
2021/08/18 06:07:22;;;;;;;25.93;11.27;;;;;;;12.81;100.00;94093.78;5087793;28;20565;-80
2021/08/18 06:09:48;;;;;;;29.47;12.23;;;;;;;12.78;100.00;94092.38;5087865;28;20240;-80
2021/08/18 06:12:15;;;;;;;25.07;11.70;;;;;;;12.78;100.00;94095.00;5086384;28;20246;-81
2021/08/18 06:14:42;;;;;;;28.55;11.35;;;;;;;12.84;100.00;94095.97;5083013;28;20262;-81
2021/08/18 06:17:08;;;;;;;24.73;11.60;;;;;;;12.85;100.00;94093.16;5086501;28;20684;-81
2021/08/18 06:19:35;;;;;;;26.17;12.27;;;;;;;12.88;100.00;94092.75;5086776;28;20257;-81
2021/08/18 06:22:03;;;;;;;33.00;12.67;;;;;;;12.80;100.00;94094.78;5082114;28;20217;-81
2021/08/18 06:24:40;;;;;;;26.65;11.90;;;;;;;12.84;100.00;94098.59;5082200;28;20290;-82
2021/08/18 06:27:08;;;;;;;28.20;11.65;;;;;;;12.93;100.00;94095.53;5086178;28;20194;-81
2021/08/18 06:29:34;;;;;;;28.43;12.37;;;;;;;12.90;100.00;94097.78;5086928;28;20202;-81
2021/08/18 06:32:01;;;;;;;28.42;11.55;;;;;;;13.01;100.00;94097.13;5085670;28;20206;-81
2021/08/18 06:34:28;;;;;;;27.25;11.10;;;;;;;12.96;100.00;94103.00;5084743;28;20202;-81
2021/08/18 06:36:54;;;;;;;25.95;11.32;;;;;;;13.10;100.00;94089.84;5083811;28;20253;-81
2021/08/18 06:39:22;;;;;;;29.45;12.80;;;;;;;13.15;100.00;94097.88;5083317;28;20522;-82
2021/08/18 06:41:49;;;;;;;24.97;11.53;;;;;;;13.23;100.00;94096.84;5082272;28;20205;-81
2021/08/18 06:44:17;;;;;;;26.77;10.95;;;;;;;13.29;100.00;94098.66;5081638;28;20227;-82
2021/08/18 06:46:43;;;;;;;25.80;10.90;;;;;;;13.41;100.00;94101.44;5082268;28;20230;-81
2021/08/18 06:49:10;;;;;;;22.80;11.35;;;;;;;13.65;100.00;94100.69;5082150;28;20230;-81
2021/08/18 06:51:36;;;;;;;30.10;11.27;;;;;;;13.77;100.00;94097.38;5082212;28;20566;-82
2021/08/18 06:54:03;;;;;;;28.88;11.05;;;;;;;13.87;100.00;94092.47;5084351;28;20199;-81
2021/08/18 06:56:31;;;;;;;22.88;10.50;;;;;;;13.94;100.00;94093.25;5088062;28;20262;-80
2021/08/18 06:58:58;;;;;;;23.45;10.27;;;;;;;13.95;100.00;94092.22;5089234;28;20199;-81
2021/08/18 07:01:30;;;;;;;20.75;10.00;;;;;;;13.80;100.00;94089.09;5090411;28;20221;-81
2021/08/18 07:03:58;;;;;;;27.27;10.05;;;;;;;13.93;100.00;94089.00;5088374;28;20225;-81
2021/08/18 07:06:25;;;;;;;20.02;9.48;;;;;;;13.97;100.00;94092.81;5088854;28;20585;-81
2021/08/18 07:08:51;;;;;;;23.27;9.82;;;;;;;13.94;100.00;94093.25;5083130;28;20225;-81
2021/08/18 07:11:18;;;;;;;21.35;10.07;;;;;;;13.86;100.00;94093.50;5086103;28;20210;-80
2021/08/18 07:13:46;;;;;;;26.25;9.45;;;;;;;13.94;100.00;94090.63;5087459;28;20233;-80
2021/08/18 07:16:12;;;;;;;21.35;9.60;;;;;;;14.11;100.00;94095.34;5087693;28;20205;-80
2021/08/18 07:18:40;;;;;;;20.05;8.68;;;;;;;14.47;100.00;94096.44;5085817;28;20202;-81
2021/08/18 07:21:06;;;;;;;16.85;7.97;;;;;;;14.34;100.00;94094.72;5082852;28;20252;-80
2021/08/18 07:23:33;;;;;;;16.20;8.15;;;;;;;14.33;100.00;94096.56;5086017;28;20226;-82
2021/08/18 07:26:00;;;;;;;18.50;9.60;;;;;;;14.25;100.00;94096.81;5083349;28;20432;-83
2021/08/18 07:28:26;;;;;;;24.38;9.57;;;;;;;14.32;100.00;94097.59;5087134;28;20198;-81
2021/08/18 07:30:54;;;;;;;16.95;7.82;;;;;;;14.56;100.00;94092.53;5083074;28;20195;-82
2021/08/18 07:33:23;;;;;;;15.05;7.60;;;;;;;14.19;100.00;94097.72;5086177;28;20266;-81
2021/08/18 07:35:49;;;;;;;15.13;7.35;;;;;;;13.91;100.00;94090.25;5081947;28;20207;-81
2021/08/18 07:38:16;;;;;;;14.68;7.45;;;;;;;14.00;100.00;94089.75;5093990;28;20217;-82
2021/08/18 07:40:42;;;;;;;15.45;7.30;;;;;;;13.87;100.00;94092.47;5087127;28;20206;-81
2021/08/18 07:43:09;;;;;;;18.48;7.10;;;;;;;13.91;100.00;94093.66;5091557;28;20182;-81
2021/08/18 07:45:37;;;;;;;12.70;6.15;;;;;;;14.10;100.00;94091.09;5087167;28;20221;-81
2021/08/18 07:48:06;;;;;;;15.40;7.10;;;;;;;14.28;100.00;94091.16;5090831;28;20209;-81
2021/08/18 07:50:32;;;;;;;15.30;7.43;;;;;;;14.21;100.00;94098.28;5091323;28;20195;-81
2021/08/18 07:52:59;;;;;;;14.88;6.85;;;;;;;14.13;100.00;94098.56;5090605;28;20203;-81
2021/08/18 07:55:26;;;;;;;19.98;7.88;;;;;;;14.20;100.00;94097.47;5093865;28;20183;-81
2021/08/18 07:57:52;;;;;;;13.30;6.78;;;;;;;14.35;100.00;94096.34;5088012;28;20199;-81
2021/08/18 08:00:19;;;;;;;16.25;6.88;;;;;;;14.38;100.00;94096.72;5091279;28;20266;-80
2021/08/18 08:02:46;;;;;;;19.13;6.55;;;;;;;14.10;100.00;94096.34;5087177;28;20206;-81
2021/08/18 08:05:15;;;;;;;14.52;7.20;;;;;;;14.33;100.00;94096.56;5088852;28;20233;-81
2021/08/18 08:07:43;;;;;;;15.00;6.28;;;;;;;14.39;100.00;94103.59;5083334;28;20203;-81
2021/08/18 08:10:15;;;;;;;15.23;6.75;;;;;;;14.43;100.00;94096.88;5081770;28;20604;-81
2021/08/18 08:12:42;;;;;;;16.25;6.40;;;;;;;14.58;100.00;94103.63;5077600;28;20262;-80
2021/08/18 08:15:10;;;;;;;13.25;6.20;;;;;;;15.03;100.00;94100.75;5075762;28;20198;-80
2021/08/18 08:17:37;;;;;;;12.13;6.15;;;;;;;14.97;100.00;94098.97;5077313;28;20202;-81
2021/08/18 08:20:05;;;;;;;17.80;7.75;;;;;;;14.82;100.00;94104.59;5075710;28;20212;-81
2021/08/18 08:22:33;;;;;;;15.93;7.45;;;;;;;15.20;100.00;94102.78;5078433;28;20226;-81
2021/08/18 08:25:00;;;;;;;14.13;7.22;;;;;;;15.89;100.00;94098.84;5079180;28;20750;-81
2021/08/18 08:27:29;;;;;;;17.48;8.07;;;;;;;15.80;100.00;94096.78;5083133;28;20210;-82
2021/08/18 08:29:55;;;;;;;12.80;6.88;;;;;;;15.68;100.00;94097.50;5084248;28;20203;-81
2021/08/18 08:32:22;;;;;;;15.77;7.35;;;;;;;15.52;97.30;94096.31;5086394;28;20198;-81
2021/08/18 08:34:48;;;;;;;13.73;6.18;;;;;;;15.33;98.04;94103.41;5084853;28;20221;-81
2021/08/18 08:37:18;;;;;;;15.15;6.63;;;;;;;15.54;100.00;94094.25;5084327;28;20242;-82
2021/08/18 08:39:45;;;;;;;9.98;5.25;;;;;;;15.82;99.42;94103.44;5085499;28;20203;-82
2021/08/18 08:42:15;;;;;;;11.75;5.53;;;;;;;15.87;97.82;94100.09;5083811;28;20226;-81
2021/08/18 08:44:44;;;;;;;10.93;4.93;;;;;;;15.98;98.63;94103.81;5080789;28;20239;-81
2021/08/18 08:47:10;;;;;;;11.57;5.15;;;;;;;15.84;95.90;94098.72;5078843;28;20237;-82
2021/08/18 08:49:38;;;;;;;9.38;4.78;;;;;;;15.38;98.58;94105.41;5080342;28;20553;-80
2021/08/18 08:52:05;;;;;;;8.40;4.07;;;;;;;15.85;97.85;94100.34;5083208;28;20202;-81
2021/08/18 08:54:34;;;;;;;10.48;4.75;;;;;;;16.40;99.81;94104.56;5086383;28;20210;-80
2021/08/18 08:57:05;;;;;;;10.25;5.03;;;;;;;17.05;91.10;94104.66;5083061;28;20210;-82
2021/08/18 08:59:33;;;;;;;11.38;5.53;;;;;;;16.18;93.45;94106.13;5082938;28;20208;-82
2021/08/18 09:02:13;;;;;;;11.07;5.20;;;;;;;15.40;100.00;94100.69;5079134;28;20199;-81
2021/08/18 09:04:43;;;;;;;13.27;5.07;;;;;;;15.47;100.00;94093.53;5078418;28;20222;-81
2021/08/18 09:07:13;;;;;;;13.27;5.13;;;;;;;16.03;100.00;94094.19;5077150;28;20199;-81
2021/08/18 09:09:47;;;;;;;11.35;4.70;;;;;;;16.20;95.72;94094.31;5077137;28;20211;-80
2021/08/18 09:12:18;;;;;;;12.10;5.32;;;;;;;16.64;95.59;94096.66;5069210;28;20199;-83
2021/08/18 09:14:45;;;;;;;10.68;5.93;;;;;;;16.11;94.65;94100.97;5059362;28;20223;-81
2021/08/18 09:17:31;;;;;;;16.45;5.75;;;;;;;16.38;97.44;94092.63;5056432;28;20329;-79
2021/08/18 09:20:01;;;;;;;11.52;5.22;;;;;;;16.59;94.82;94088.63;5056593;28;20203;-80
2021/08/18 09:22:31;;;;;;;9.77;5.15;;;;;;;16.51;98.68;94095.06;5063220;28;20203;-79
2021/08/18 09:25:18;;;;;;;8.75;4.32;;;;;;;16.62;95.45;94091.63;5058098;28;20219;-81
2021/08/18 09:27:53;;;;;;;8.60;4.50;;;;;;;16.74;94.11;94093.44;5059312;28;20257;-79
2021/08/18 09:30:24;;;;;;;8.88;4.43;;;;;;;16.23;94.40;94088.59;5056656;28;20215;-81
2021/08/18 09:32:52;;;;;;;7.90;3.95;;;;;;;16.57;95.74;94090.69;5055816;28;20202;-81
2021/08/18 09:35:20;;;;;;;10.07;3.97;;;;;;;16.66;94.88;94089.31;5056050;28;20210;-81
2021/08/18 09:37:54;;;;;;;7.80;4.15;;;;;;;15.98;95.42;94091.44;5061136;28;20261;-82
2021/08/18 09:40:23;;;;;;;9.85;4.65;;;;;;;15.67;99.38;94088.00;5067098;28;20702;-81
2021/08/18 09:42:56;;;;;;;8.13;3.70;;;;;;;15.63;100.00;94091.31;5070305;28;20260;-82
2021/08/18 09:45:24;;;;;;;6.18;3.38;;;;;;;15.75;100.00;94089.50;5080101;28;20293;-81
2021/08/18 09:48:00;;;;;;;7.95;4.32;;;;;;;15.89;100.00;94101.50;5079883;28;20215;-79
2021/08/18 09:50:29;;;;;;;17.92;7.35;;;;;;;16.34;97.04;94102.03;5075545;28;20699;-80
2021/08/18 09:53:06;;;;;;;20.17;7.30;;;;;;;16.77;96.05;94090.31;5074572;28;20272;-80
2021/08/18 09:55:36;;;;;;;19.83;8.45;;;;;;;16.67;96.36;94092.75;5075761;28;20665;-80
2021/08/18 09:58:19;;;;;;;11.82;5.43;;;;;;;16.48;93.73;94092.06;5076924;28;20658;-81
2021/08/18 10:00:46;;;;;;;11.30;4.63;;;;;;;17.19;97.35;94088.34;5076381;28;20254;-80
2021/08/18 10:03:13;;;;;;;7.03;3.33;;;;;;;17.33;90.84;94091.50;5077054;28;20213;-80
2021/08/18 10:05:40;;;;;;;9.05;2.85;;;;;;;17.72;92.15;94085.66;5077537;28;20279;-80
2021/08/18 10:08:13;;;;;;;6.00;2.70;;;;;;;17.75;88.78;94091.25;5076434;28;20245;-80
2021/08/18 10:10:42;;;;;;;8.88;4.05;;;;;;;16.90;90.16;94084.03;5077637;28;20268;-80
2021/08/18 10:13:13;;;;;;;14.10;5.15;;;;;;;17.09;89.71;94084.72;5075008;28;20222;-80
2021/08/18 10:15:43;;;;;;;11.23;5.25;;;;;;;17.48;90.20;94082.28;5075708;28;20213;-80
2021/08/18 10:18:10;;;;;;;12.70;5.00;;;;;;;18.12;89.95;94082.91;5079125;28;20223;-80
2021/08/18 10:20:41;;;;;;;11.07;4.03;;;;;;;18.89;87.45;94074.56;5079349;28;20199;-80
2021/08/18 10:23:13;;;;;;;8.43;3.83;;;;;;;18.35;82.97;94077.72;5079873;28;20267;-80
2021/08/18 10:25:46;;;;;;;8.48;3.83;;;;;;;18.17;84.98;94086.66;5075545;28;20230;-80
2021/08/18 10:28:16;;;;;;;7.68;2.25;;;;;;;17.47;86.45;94091.22;5075009;28;20253;-80
2021/08/18 10:30:52;;;;;;;4.55;1.80;;;;;;;17.78;85.68;94081.25;5082069;28;20198;-80
2021/08/18 10:33:56;;;;;;;3.83;1.98;;;;;;;18.15;86.21;94078.19;5078594;28;20600;-80
2021/08/18 10:37:01;;;;;;;3.85;1.48;;;;;;;18.45;84.26;94081.31;5080681;28;20202;-80
2021/08/18 10:39:37;;;;;;;1.80;1.20;;;;;;;18.03;83.70;94080.91;5075223;28;20277;-80
2021/08/18 10:42:07;;;;;;;2.90;1.20;;;;;;;17.67;88.59;94082.88;5074931;28;20202;-81
2021/08/18 10:44:40;;;;;;;2.65;1.40;;;;;;;17.51;87.40;94073.91;5075648;28;20225;-79
2021/08/18 10:47:15;;;;;;;2.83;1.17;;;;;;;16.96;89.74;94080.50;5076198;28;20207;-81
2021/08/18 10:49:42;;;;;;;2.33;1.10;;;;;;;17.26;88.36;94079.50;5081846;28;20557;-80
2021/08/18 10:52:10;;;;;;;0.98;0.70;;;;;;;17.53;86.27;94077.09;5074573;28;20237;-81
2021/08/18 10:54:44;;;;;;;1.25;0.82;;;;;;;17.92;83.74;94072.81;5074971;28;20261;-80
2021/08/18 10:57:44;;;;;;;1.27;0.73;;;;;;;18.48;85.19;94072.91;5074924;28;20194;-82
2021/08/18 11:00:17;;;;;;;1.23;1.00;;;;;;;19.04;79.05;94064.16;5074472;28;20207;-80
2021/08/18 11:03:02;;;;;;;0.90;0.70;;;;;;;19.41;77.10;94064.31;5074841;28;20195;-81
2021/08/18 11:05:42;;;;;;;1.65;0.85;;;;;;;19.66;79.80;94068.28;5077286;28;20268;-82
2021/08/18 11:08:11;;;;;;;2.13;0.98;;;;;;;19.15;80.80;94060.59;5083045;28;20229;-82
2021/08/18 11:10:41;;;;;;;1.33;0.80;;;;;;;19.36;81.38;94058.97;5079480;28;20226;-82
2021/08/18 11:13:09;;;;;;;1.75;1.08;;;;;;;18.89;79.28;94056.03;5075513;28;20199;-81
2021/08/18 11:15:56;;;;;;;1.17;0.82;;;;;;;18.92;80.46;94064.28;5073826;28;20199;-82
2021/08/18 11:18:24;;;;;;;1.30;0.80;;;;;;;19.34;78.42;94063.72;5073950;28;20209;-82
2021/08/18 11:20:55;;;;;;;1.10;0.80;;;;;;;19.07;77.22;94063.66;5073800;28;20689;-82